Weather observations for the past three days for
Natchitoches, Natchitoches Regional Airport
Metric (Imperial)
Date Time (cdt) Wind (kph) Vis. (km) Weather Sky Cond. Temperature (ºC) Relative Humidity Wind Chill (°C) Heat Index (°C) Pressure Precipitation (cm)
Air Dwpt 6 hour altimeter (cm) sea level (mb) 1 hr 3 hr 6 hr
Max. Min.
10 04:15 Calm 16.09 Overcast OVC007 20 20 100% 76 0.0
10 03:55 Calm 16.09 Overcast OVC007 19.8 19.8 100% 76 0.0
10 03:35 Calm 16.09 Overcast OVC007 19.8 19.8 100% 75.97 0.0
10 03:15 Calm 16.09 Overcast OVC007 19.8 19.8 100% 75.97 0.0
10 02:55 Calm 16.09 Overcast OVC007 19.8 19.8 100% 75.97 0.0
10 02:35 Calm 16.09 Overcast OVC007 19.8 19.8 100% 75.95 0.0
10 02:15 Calm 16.09 Overcast OVC007 19.8 19.8 100% 75.95 0.0
10 01:55 Calm 16.09 Overcast OVC007 19.7 19.7 100% 75.95 0.0
10 01:35 Calm 16.09 Overcast OVC007 19.8 19.8 100% 75.95 0.0
10 01:15 Calm 16.09 Overcast OVC007 19.8 19.8 100% 75.95 0.0
10 00:55 Calm 16.09 Overcast OVC007 19.8 19.8 21.3 18.5 100% 75.95 0.0
10 00:35 Calm 16.09 Overcast OVC007 19.8 19.8 100% 75.95 0.0
10 00:15 Calm 16.09 Overcast OVC007 19.8 19.8 100% 75.95 0.0
09 23:55 Calm 16.09 Overcast OVC007 19.7 19.7 100% 75.95 0.0
09 23:35 Calm 16.09 Overcast OVC007 19.7 19.7 100% 75.97 0.0
09 23:15 Calm 16.09 Overcast OVC009 19.6 19.6 100% 75.97 0.0
09 22:55 Calm 16.09 Overcast OVC009 19.2 19.2 100% 76 0.0
09 22:35 Calm 11.27 Mostly Cloudy BKN011 18.6 18.6 100% 76 0.0
09 22:15 Calm 16.09 Fair CLR 18.7 18.7 100% 75.97 0.0
09 21:55 Calm 16.09 Fair CLR 19 19 100% 75.95 0.0
09 21:35 Calm 16.09 Fair CLR 19.1 19.1 100% 75.92 0.0
09 21:15 Calm 16.09 Fair CLR 19.5 19.5 100% 75.92 0.0
09 20:55 Calm 16.09 Fair CLR 20 20 100% 75.9 0.0
09 20:35 Calm 16.09 Fair CLR 20.2 20.2 100% 75.9 0.0
09 20:15 Calm 16.09 Fair CLR 20.5 20.5 100% 75.87 0.0
09 19:55 Calm 16.09 Partly Cloudy SCT007 21 20.9 99% 75.84 0.0
09 19:35 Calm 16.09 Partly Cloudy SCT007 21.1 21.1 100% 75.84 0.0
09 19:15 Calm 16.09 Overcast BKN009 OVC013 21.1 21.1 100% 75.82 0.0
09 18:55 Calm 16.09 Overcast OVC013 21.3 21.2 25.2 20.7 99% 75.84 0.0
09 18:35 SE 9 16.09 Overcast BKN013 OVC029 21.5 21.1 98% 75.84 0.0
09 18:15 Calm 16.09 Overcast SCT013 BKN025 OVC030 21.2 21.2 100% 75.82 0.0
09 17:55 SE 11 16.09 Light Drizzle SCT016 OVC025 21 20.7 98% 75.84 0.0
09 17:35 SE 6 16.09 Drizzle SCT018 BKN044 OVC080 21.1 21 99% 75.82 0.0
09 17:15 Calm 16.09 Thunderstorm Drizzle BKN022 BKN027 OVC050 21 21 100% 75.82 0.0
09 16:55 Calm 16.09 Light Drizzle SCT007 SCT011 OVC020 21 21 100% 75.82 0.0
09 16:35 SE 19 6.44 Thunderstorm Light Rain in Vicinity BKN007 BKN011 OVC016 20.8 20.8 100% 75.79 0.0
09 16:15 SE 20 G 30 8.05 Light Rain SCT007 OVC013 22.2 22.2 100% 75.79 0.0
09 15:55 SE 17 16.09 Overcast OVC013 23 21.8 93% 75.79 0.0
09 15:35 E 15 16.09 Overcast BKN015 OVC025 23.6 21.2 86% 75.79 0.0
09 15:15 Calm 16.09 Overcast SCT015 OVC025 24.5 21.2 82% 25 75.79 0.0
09 14:55 Calm 16.09 Overcast BKN015 OVC023 24.6 21.1 81% 25 75.82 0.0
09 14:35 Calm 16.09 Overcast OVC025 24.7 20.9 79% 25 75.82 0.0
09 14:15 Calm 16.09 Overcast OVC025 24.8 21 79% 26 75.79 0.0
09 13:55 Calm 16.09 Overcast OVC023 24.3 20.6 80% 25 75.82 0.0
09 13:35 Calm 16.09 Overcast SCT013 OVC021 23.9 20.3 80% 24 75.82 0.0
09 13:15 Calm 16.09 Overcast OVC013 23.6 20.4 82% 75.84 0.0
09 12:55 Calm 16.09 Overcast OVC013 23.7 20.3 24.4 17.8 81% 75.87 0.0
09 12:35 Calm 16.09 Overcast OVC015 23.7 20.1 80% 75.87 0.0
09 12:15 Calm 16.09 Overcast SCT015 OVC021 23.6 19.9 80% 75.9 0.0
09 11:55 Calm 16.09 Overcast OVC019 24.3 20.4 79% 25 75.9 0.0
09 11:35 Calm 16.09 Overcast OVC019 23.3 19.5 79% 75.9 0.0
09 11:15 Calm 16.09 Mostly Cloudy BKN017 22.4 19 81% 75.9 0.0
09 10:55 Calm 16.09 Mostly Cloudy BKN019 22.4 19.3 83% 75.9 0.0
09 10:35 Calm 16.09 Overcast OVC021 20.8 19.4 92% 75.87 0.0
09 10:15 Calm 16.09 Overcast SCT015 OVC021 20 19.8 99% 75.87 0.0
09 09:55 Calm 16.09 Overcast BKN015 OVC021 19.6 19.6 100% 75.87 0.0
09 09:35 Calm 16.09 Overcast OVC017 19.4 19.4 100% 75.9 0.0
09 09:15 Calm 16.09 Overcast OVC017 19.2 19.2 100% 75.9 0.0
09 08:55 Calm 16.09 Overcast OVC019 18.9 18.9 100% 75.9 0.0
09 08:35 Calm 16.09 Overcast OVC019 18.6 18.6 100% 75.9 0.0
09 08:15 Calm 16.09 Overcast SCT019 OVC026 18.5 18.5 100% 75.9 0.0
09 07:55 Calm 16.09 Mostly Cloudy SCT019 BKN026 BKN030 18.5 18.5 100% 75.9 0.0
09 07:35 Calm 16.09 Mostly Cloudy BKN024 18.1 18.1 100% 75.84 0.0
09 07:15 Calm 16.09 Overcast OVC026 18 18 100% 75.82 0.0
09 06:55 Calm 16.09 Light Rain OVC026 17.7 17.7 20.7 17.3 100% 75.87 0.0
09 06:35 Calm 16.09 Light Rain OVC026 17.6 17.6 100% 75.87 0.0
09 06:15 Calm 16.09 Overcast OVC028 17.6 17.6 100% 75.84 0.0
09 05:55 Calm 16.09 Overcast BKN032 OVC038 17.6 17.6 100% 75.82 0.0
09 05:35 Calm 16.09 Overcast BKN036 OVC044 17.5 17.5 100% 75.82 0.0
09 05:15 Calm 11.27 Thunderstorm Rain in Vicinity BKN042 OVC060 17.5 17.5 100% 75.79 0.0
09 04:55 Calm 16.09 Light Drizzle SCT004 OVC045 17.5 17.5 100% 75.84 0.0
09 04:35 Calm 16.09 Light Drizzle SCT004 SCT049 OVC060 17.5 17.5 100% 75.84 0.0
09 04:15 Calm 8.05 Thunderstorm Rain in Vicinity SCT006 SCT034 OVC060 17.3 17.3 100% 75.84 0.0
09 03:55 Calm 3.22 Thunderstorm Rain in Vicinity BKN006 BKN012 OVC035 17.4 17.4 100% 75.84 0.0
09 03:35 N 11 G 35 1.61 Thunderstorm Heavy Rain OVC007 17.7 17.7 100% 75.9 0.0
09 03:15 N 39 G 46 8.05 Thunderstorm Heavy Rain and Breezy SCT005 OVC012 20.4 20.4 100% 75.95 0.0
09 02:55 Calm 11.27 Thunderstorm Light Rain in Vicinity OVC012 20.3 20.3 100% 75.79 0.0
09 02:35 Calm 16.09 Thunderstorm in Vicinity OVC012 20.5 20.5 100% 75.79 0.0
09 02:15 Calm 16.09 Overcast BKN008 OVC012 20.5 20.5 100% 75.82 0.0
09 01:55 Calm 16.09 Overcast OVC008 20.6 20.6 100% 75.84 0.0
09 01:35 Calm 16.09 Thunderstorm in Vicinity OVC008 20.6 20.6 100% 75.84 0.0
09 01:15 Calm 16.09 Overcast OVC010 20.7 20.7 100% 75.87 0.0
09 00:55 Calm 16.09 Overcast OVC010 20.7 20.7 20.8 19.8 100% 75.9 0.0
09 00:35 Calm 16.09 Overcast OVC012 20.7 20.6 99% 75.87 0.0
09 00:15 Calm 16.09 Overcast OVC012 20.6 20.5 99% 75.87 0.0
08 23:55 Calm 16.09 Overcast OVC012 20.5 20.5 100% 75.87 0.0
08 23:35 Calm 16.09 Overcast BKN014 OVC019 19.8 19.8 100% 75.84 0.0
08 23:15 Calm 16.09 Mostly Cloudy SCT009 SCT014 BKN021 20 20 100% 75.84 0.0
08 22:55 Calm 16.09 Mostly Cloudy BKN009 BKN110 20.2 20.1 99% 75.82 0.0
08 22:35 Calm 16.09 Mostly Cloudy SCT009 SCT020 BKN110 20 20 100% 75.82 0.0
08 22:15 Calm 16.09 Overcast BKN009 OVC018 20.4 20.1 98% 75.79 0.0
08 21:55 Calm 16.09 Overcast OVC011 20.3 20 98% 75.79 0.0
08 21:35 Calm 16.09 Overcast OVC011 20.1 19.8 98% 75.77 0.0
08 21:15 S 13 16.09 Overcast OVC011 20 19.7 98% 75.77 0.0
08 20:55 SE 17 16.09 Overcast OVC011 20.1 19.4 96% 75.74 0.0
08 20:35 Calm 16.09 Overcast OVC011 20.2 19.1 93% 75.77 0.0
08 20:15 Calm 16.09 Overcast OVC011 20.3 18.6 90% 75.82 0.0
08 19:55 Calm 16.09 Overcast OVC011 20.5 18.6 89% 75.84 0.0
08 19:35 Calm 16.09 Overcast OVC013 20.5 18.4 88% 75.82 0.0
08 19:15 Calm 16.09 Overcast OVC013 20.4 18.2 87% 75.82 0.0
08 18:55 Calm 16.09 Overcast OVC011 20.5 18.1 24 20.5 86% 75.84 0.0
08 18:35 Calm 16.09 Overcast OVC011 20.7 18 85% 75.84 0.0
08 18:15 Calm 16.09 Overcast OVC011 20.5 18 86% 75.84 0.0
08 17:55 Calm 16.09 Overcast SCT013 BKN020 OVC060 20.5 18 86% 75.84 0.0
08 17:35 SE 9 16.09 Overcast SCT013 BKN060 OVC070 21 18 83% 75.82 0.0
08 17:15 Calm 16.09 Overcast SCT013 BKN019 OVC070 21.3 18 82% 75.84 0.0
08 16:55 S 13 16.09 Overcast SCT013 OVC019 21.8 18.3 81% 75.84 0.0
08 16:35 SE 17 16.09 Overcast BKN015 OVC020 21.1 18.1 83% 75.87 0.0
08 16:15 SE 11 16.09 Overcast OVC016 21.3 18.2 83% 75.87 0.0
08 15:55 S 15 16.09 Overcast OVC018 21.7 18.2 81% 75.87 0.0
08 15:35 SE 11 16.09 Overcast OVC020 22.7 18.3 76% 75.87 0.0
08 15:15 SE 15 16.09 Partly Cloudy SCT020 SCT085 23 18 74% 75.87 0.0
08 14:55 SE 9 16.09 Partly Cloudy SCT020 SCT085 23.2 17.6 71% 75.9 0.0
08 14:35 Calm 16.09 Partly Cloudy SCT085 23.4 17.3 69% 75.92 0.0
08 14:15 Calm 16.09 Partly Cloudy SCT085 23.1 16.9 68% 75.92 0.0
08 13:55 SE 11 16.09 Fair CLR 23.4 16.8 67% 75.95 0.0
08 13:35 SE 11 16.09 Fair CLR 23 16.4 66% 75.95 0.0
08 13:15 Calm 16.09 Fair CLR 22.4 15.6 66% 75.97 0.0
08 12:55 E 9 16.09 Fair CLR 22 15.1 22 16.1 65% 76.02 0.0
08 12:35 E 15 16.09 Fair CLR 21.5 15.1 67% 76 0.0
08 12:15 E 15 16.09 Partly Cloudy SCT050 21 15.1 69% 76.02 0.0
08 11:55 Calm 16.09 Partly Cloudy SCT050 19.6 14.7 73% 76.07 0.0
08 11:35 Calm 16.09 Partly Cloudy SCT033 SCT045 SCT065 18.5 15.3 82% 76.07 0.0
08 11:15 Calm 16.09 Light Rain SCT033 BKN047 OVC065 17 14.6 86% 76.1 0.0
08 10:55 Calm 16.09 Light Rain BKN050 OVC065 16.8 14.2 85% 76.2 0.0
08 10:35 Calm 16.09 Thunderstorm Light Rain SCT033 BKN048 OVC065 17 13.7 81% 76.25 0.0
08 10:15 Calm 16.09 Thunderstorm Light Rain in Vicinity SCT033 SCT046 OVC065 17.1 13.5 80% 76.23 0.0
08 09:55 Calm 16.09 Thunderstorm in Vicinity BKN065 BKN120 17 13.1 78% 76.15 0.0
08 09:35 Calm 16.09 Mostly Cloudy SCT047 BKN065 BKN090 17.1 13.4 79% 76.17 0.0
08 09:15 Calm 16.09 Partly Cloudy SCT047 SCT065 SCT080 17 13.3 79% 76.17 0.0
08 08:55 Calm 16.09 Mostly Cloudy SCT045 BKN080 16.8 13.4 81% 76.15 0.0
08 08:35 Calm 16.09 Thunderstorm in Vicinity OVC045 17.1 13.7 81% 76.15 0.0
08 08:15 Calm 16.09 Mostly Cloudy BKN045 17 13.5 80% 76.17 0.0
08 07:55 Calm 16.09 Fair CLR 17 13.4 79% 76.12 0.0
08 07:35 Calm 16.09 Fair CLR 16.7 13.5 82% 76.12 0.0
08 07:15 Calm 16.09 Fair CLR 16.4 13.8 85% 76.07 0.0
08 06:55 Calm 16.09 Fair CLR 16.1 14.7 17.9 16 91% 76.07 0.0
08 06:35 Calm 16.09 Partly Cloudy SCT050 16.3 15.1 93% 76.12 0.0
08 06:15 Calm 16.09 Overcast OVC050 16.5 15.1 92% 76.15 0.0
08 06:00 Calm 16.09 Overcast OVC050 16.5 15.3 93% 76.15 0.0
08 05:35 Calm 16.09 Partly Cloudy SCT050 16 15.2 95% 76.12 0.0
08 05:15 Calm 16.09 Partly Cloudy SCT050 16.2 15.1 93% 76.12 0.0
08 04:55 Calm 16.09 Fair CLR 16.2 15.1 93% 76.12 0.0
08 04:35 Calm 16.09 Fair CLR 16.5 15.1 92% 76.12 0.0
08 04:15 Calm 16.09 Fair CLR 16.1 15.3 95% 76.15 0.0
08 03:55 Calm 16.09 Fair CLR 16.4 14.6 89% 76.15 0.0
08 03:35 Calm 16.09 Fair CLR 16.7 14.5 87% 76.15 0.0
08 03:15 Calm 16.09 Fair CLR 17 14.6 86% 76.12 0.0
08 02:55 Calm 16.09 Fair CLR 17.2 14.6 85% 76.12 0.0
08 02:35 Calm 16.09 Fair CLR 17.4 14.6 84% 76.12 0.0
08 02:15 Calm 16.09 Fair CLR 17.3 14.6 84% 76.12 0.0
08 01:55 Calm 16.09 Fair CLR 17.6 14.5 82% 76.15 0.0
08 01:35 Calm 16.09 Fair CLR 17.6 14.6 83% 76.15 0.0
08 01:15 Calm 16.09 Fair CLR 17.7 15.2 85% 76.15 0.0
08 00:55 Calm 16.09 Fair CLR 17.9 15.5 20.5 17.3 86% 76.15 0.0
08 00:35 Calm 16.09 Fair CLR 17.8 15.9 89% 76.2 0.0
08 00:15 Calm 16.09 Fair CLR 18.2 16 87% 76.17 0.0
07 23:55 Calm 16.09 Fair CLR 18.2 16.7 91% 76.17 0.0
07 23:35 Calm 16.09 Fair CLR 18.2 16.5 90% 76.15 0.0
07 23:15 Calm 16.09 Fair CLR 17.3 17.1 99% 76.2 0.0
07 22:55 Calm 16.09 Fair CLR 18.3 16.5 89% 76.2 0.0
07 22:35 Calm 16.09 Fair CLR 18.6 15.9 84% 76.23 0.0
07 22:15 Calm 16.09 Fair CLR 19 15.8 82% 76.2 0.0
07 21:55 Calm 16.09 Fair CLR 18.6 16.1 85% 76.2 0.0
07 21:35 Calm 16.09 Fair CLR 18.5 16 85% 76.2 0.0
07 21:15 Calm 16.09 Fair CLR 19.3 15.3 78% 76.12 0.0
07 20:55 Calm 16.09 Fair CLR 18.5 16.9 90% 76.1 0.0
07 20:35 Calm 16.09 Fair CLR 17.9 17 95% 76.17 0.0
07 20:15 Calm 16.09 Fair CLR 19.5 15.5 78% 76.15 0.0
07 19:55 Calm 16.09 Fair CLR 18.8 15.7 82% 76.12 0.0
07 19:35 Calm 16.09 Fair CLR 19.9 15.1 74% 76.15 0.0
07 19:15 Calm 16.09 Fair CLR 20.5 14.8 70% 76.12 0.0
07 18:55 Calm 16.09 Fair CLR 20.5 14.7 22.5 20.5 70% 76.12 0.0
07 18:35 Calm 16.09 Fair CLR 20.9 14.6 67% 76.15 0.0
07 18:15 Calm 16.09 Fair CLR 21.2 14.1 64% 76.15 0.0
07 17:55 Calm 16.09 Fair CLR 21.4 13.8 62% 76.17 0.0
07 17:35 Calm 16.09 Fair CLR 21.7 14 62% 76.1 0.0
07 17:15 Calm 16.09 Fair CLR 22.5 13.7 58% 76.12 0.0
07 16:55 Calm 16.09 Fair CLR 22 13.5 59% 76.15 0.0
07 16:35 Calm 16.09 Fair CLR 21.9 13.9 61% 76.15 0.0
07 16:15 Calm 16.09 Fair CLR 21.9 13.7 60% 76.15 0.0
07 15:55 Calm 16.09 Fair CLR 21.6 13.3 59% 76.17 0.0
07 15:35 Calm 16.09 Fair CLR 21.5 13.5 60% 76.17 0.0
07 15:15 Calm 16.09 Fair CLR 21.5 13.1 59% 76.2 0.0
07 14:55 Calm 16.09 Fair CLR 21.5 12.7 57% 76.2 0.0
07 14:35 N 15 16.09 Fair CLR 21.7 13.3 59% 76.23 0.0
07 14:15 NE 11 16.09 Partly Cloudy SCT035 21.8 13.5 59% 76.23 0.0
07 13:55 Calm 16.09 Fair CLR 22.1 13.6 59% 76.23 0.0
07 13:35 Calm 16.09 Fair CLR 21.2 13.4 61% 76.23 0.0
07 13:15 NE 11 16.09 Fair CLR 22 14.2 61% 76.23 0.0
07 12:55 Calm 16.09 Fair CLR 20.9 13.9 20.9 12.7 64% 76.25 0.0
07 12:35 N 13 16.09 Fair CLR 20.3 13.5 65% 76.28 0.0
07 12:15 NE 15 16.09 Fair CLR 19.9 13.5 67% 76.28 0.0
07 11:55 Calm 16.09 Partly Cloudy SCT019 18.9 13.4 71% 76.35 0.0
07 11:35 Calm 16.09 Partly Cloudy SCT019 17.1 12.5 75% 76.35 0.0
07 11:15 Calm 16.09 Partly Cloudy SCT015 17.3 12.7 75% 76.33 0.0
07 10:55 Calm 16.09 Mostly Cloudy BKN015 17 12.7 76% 76.38 0.0
07 10:35 Calm 16.09 Overcast OVC013 16 12.2 78% 76.35 0.0
07 10:15 Calm 16.09 Overcast OVC013 15.1 11.9 81% 76.38 0.0
07 09:55 Calm 16.09 Overcast OVC013 14.8 11.8 82% 76.38 0.0
07 09:35 N 15 16.09 Overcast OVC011 14.3 11.8 85% 76.38 0.0
07 09:15 N 6 16.09 Overcast OVC011 14 11.8 87% 76.35 0.0
07 08:55 NE 11 16.09 Overcast OVC011 13.7 11.6 87% 76.33 0.0
07 08:35 N 15 16.09 Overcast OVC011 13.6 11.9 90% 76.33 0.0
07 08:15 Calm 16.09 Overcast OVC011 13.3 12 92% 76.35 0.0
07 07:55 Calm 16.09 Overcast OVC011 13.3 12.2 93% 76.33 0.0
07 07:35 Calm 16.09 Overcast OVC011 13.1 12 93% 76.3 0.0
07 07:15 Calm 16.09 Overcast OVC011 12.8 11.8 94% 76.28 0.0
07 06:55 Calm 16.09 Overcast OVC011 12.8 11.9 14.3 12.5 94% 76.25 0.0
07 06:35 Calm 16.09 Overcast OVC009 12.7 11.7 94% 76.2 0.0
07 06:15 Calm 16.09 Overcast OVC009 12.6 11.9 96% 76.2 0.0
07 05:55 Calm 16.09 Overcast OVC009 12.6 11.9 96% 76.2 0.0
07 05:35 Calm 16.09 Overcast OVC009 12.7 12 96% 76.2 0.0
07 05:15 Calm 16.09 Overcast OVC009 12.6 12.1 97% 76.17 0.0
07 04:55 N 13 16.09 Overcast OVC007 12.6 12.1 97% 76.17 0.0
07 04:35 N 7 16.09 Overcast OVC009 12.8 12.6 99% 76.15 0.0
Date Time (cdt) Wind (kph) Vis. (km) Weather Sky Cond. Air Dwpt Max. Min. Relative Humidity Wind Chill (°C) Heat Index (°C) altimeter (cm) sea level (mb) 1 hr 3 hr 6 hr
6 hour
Temperature (ºC) Pressure Precipitation (cm)